sensor_id;sensor_type;location;lat;lon;timestamp;pressure;altitude;pressure_sealevel;temperature;humidity
71857;BME280;63344;46.980;28.882;2023-10-19T00:01:01;100730.91;;;6.60;nan
71857;BME280;63344;46.980;28.882;2023-10-19T00:03:37;100729.19;;;6.59;nan
71857;BME280;63344;46.980;28.882;2023-10-19T00:06:04;100714.38;;;6.52;nan
71857;BME280;63344;46.980;28.882;2023-10-19T00:08:33;100730.88;;;6.63;nan
71857;BME280;63344;46.980;28.882;2023-10-19T00:11:14;100721.31;;;6.56;nan
71857;BME280;63344;46.980;28.882;2023-10-19T00:13:53;100717.88;;;6.52;nan
71857;BME280;63344;46.980;28.882;2023-10-19T00:16:26;100716.19;;;6.50;nan
71857;BME280;63344;46.980;28.882;2023-10-19T00:18:58;100735.47;;;6.53;nan
71857;BME280;63344;46.980;28.882;2023-10-19T00:21:30;100719.69;;;6.50;nan
71857;BME280;63344;46.980;28.882;2023-10-19T00:24:11;100706.84;;;6.33;nan
71857;BME280;63344;46.980;28.882;2023-10-19T00:26:45;100714.88;;;6.27;nan
71857;BME280;63344;46.980;28.882;2023-10-19T00:29:15;100715.75;;;6.28;nan
71857;BME280;63344;46.980;28.882;2023-10-19T00:32:04;100716.69;;;6.25;nan
71857;BME280;63344;46.980;28.882;2023-10-19T00:34:33;100708.94;;;6.16;nan
71857;BME280;63344;46.980;28.882;2023-10-19T00:37:11;100721.28;;;6.12;nan
71857;BME280;63344;46.980;28.882;2023-10-19T00:39:47;100726.75;;;6.03;nan
71857;BME280;63344;46.980;28.882;2023-10-19T00:42:24;100721.50;;;6.02;nan
71857;BME280;63344;46.980;28.882;2023-10-19T00:44:58;100716.16;;;6.05;nan
71857;BME280;63344;46.980;28.882;2023-10-19T00:47:32;100711.72;;;6.07;nan
71857;BME280;63344;46.980;28.882;2023-10-19T00:50:17;100708.94;;;6.14;nan
71857;BME280;63344;46.980;28.882;2023-10-19T00:52:45;100701.97;;;6.13;nan
71857;BME280;63344;46.980;28.882;2023-10-19T00:55:18;100704.44;;;6.21;nan
71857;BME280;63344;46.980;28.882;2023-10-19T00:57:49;100696.56;;;6.20;nan
71857;BME280;63344;46.980;28.882;2023-10-19T01:00:18;100700.06;;;6.20;nan
71857;BME280;63344;46.980;28.882;2023-10-19T01:03:02;100694.94;;;6.11;nan
71857;BME280;63344;46.980;28.882;2023-10-19T01:05:33;100685.47;;;6.02;nan
71857;BME280;63344;46.980;28.882;2023-10-19T01:08:05;100702.97;;;6.05;nan
71857;BME280;63344;46.980;28.882;2023-10-19T01:11:02;100702.22;;;6.00;nan
71857;BME280;63344;46.980;28.882;2023-10-19T01:13:32;100701.47;;;5.90;nan
71857;BME280;63344;46.980;28.882;2023-10-19T01:16:03;100710.38;;;5.83;nan
71857;BME280;63344;46.980;28.882;2023-10-19T01:18:36;100704.47;;;5.70;nan
71857;BME280;63344;46.980;28.882;2023-10-19T01:21:03;100699.41;;;5.57;nan
71857;BME280;63344;46.980;28.882;2023-10-19T01:23:34;100700.50;;;5.44;nan
71857;BME280;63344;46.980;28.882;2023-10-19T01:26:06;100694.59;;;5.30;nan
71857;BME280;63344;46.980;28.882;2023-10-19T01:28:39;100695.56;;;5.24;nan
71857;BME280;63344;46.980;28.882;2023-10-19T01:31:17;100704.34;;;5.23;nan
71857;BME280;63344;46.980;28.882;2023-10-19T01:34:05;100698.28;;;5.18;nan
71857;BME280;63344;46.980;28.882;2023-10-19T01:36:36;100686.16;;;5.08;nan
71857;BME280;63344;46.980;28.882;2023-10-19T01:39:27;100700.19;;;5.10;nan
71857;BME280;63344;46.980;28.882;2023-10-19T01:41:58;100699.44;;;5.02;nan
71857;BME280;63344;46.980;28.882;2023-10-19T01:44:26;100700.41;;;4.94;nan
71857;BME280;63344;46.980;28.882;2023-10-19T01:46:56;100684.00;;;4.75;nan
71857;BME280;63344;46.980;28.882;2023-10-19T01:49:24;100698.97;;;4.72;nan
71857;BME280;63344;46.980;28.882;2023-10-19T01:51:58;100697.28;;;4.66;nan
71857;BME280;63344;46.980;28.882;2023-10-19T01:54:27;100686.03;;;4.55;nan
71857;BME280;63344;46.980;28.882;2023-10-19T01:56:56;100695.66;;;4.56;nan
71857;BME280;63344;46.980;28.882;2023-10-19T01:59:26;100703.59;;;4.53;nan
71857;BME280;63344;46.980;28.882;2023-10-19T02:01:54;100696.75;;;4.39;nan
71857;BME280;63344;46.980;28.882;2023-10-19T02:04:23;100708.97;;;4.42;nan
71857;BME280;63344;46.980;28.882;2023-10-19T02:06:51;100700.34;;;4.31;nan
71857;BME280;63344;46.980;28.882;2023-10-19T02:09:22;100703.81;;;4.34;nan
71857;BME280;63344;46.980;28.882;2023-10-19T02:11:59;100679.47;;;4.17;nan
71857;BME280;63344;46.980;28.882;2023-10-19T02:14:29;100704.81;;;4.24;nan
71857;BME280;63344;46.980;28.882;2023-10-19T02:17:01;100709.22;;;4.22;nan
71857;BME280;63344;46.980;28.882;2023-10-19T02:19:34;100708.38;;;4.20;nan
71857;BME280;63344;46.980;28.882;2023-10-19T02:22:04;100704.88;;;4.19;nan
71857;BME280;63344;46.980;28.882;2023-10-19T02:24:42;100698.84;;;4.10;nan
71857;BME280;63344;46.980;28.882;2023-10-19T02:27:13;100700.66;;;4.03;nan
71857;BME280;63344;46.980;28.882;2023-10-19T02:29:53;100705.88;;;4.06;nan
71857;BME280;63344;46.980;28.882;2023-10-19T02:32:22;100698.94;;;4.01;nan
71857;BME280;63344;46.980;28.882;2023-10-19T02:34:54;100712.06;;;4.01;nan
71857;BME280;63344;46.980;28.882;2023-10-19T02:37:21;100699.06;;;3.88;nan
71857;BME280;63344;46.980;28.882;2023-10-19T02:39:49;100712.19;;;3.90;nan
71857;BME280;63344;46.980;28.882;2023-10-19T02:42:18;100714.84;;;3.85;nan
71857;BME280;63344;46.980;28.882;2023-10-19T02:44:51;100712.25;;;3.82;nan
71857;BME280;63344;46.980;28.882;2023-10-19T02:47:19;100701.84;;;3.71;nan
71857;BME280;63344;46.980;28.882;2023-10-19T02:49:47;100710.63;;;3.69;nan
71857;BME280;63344;46.980;28.882;2023-10-19T02:52:23;100703.66;;;3.66;nan
71857;BME280;63344;46.980;28.882;2023-10-19T02:54:52;100711.50;;;3.69;nan
71857;BME280;63344;46.980;28.882;2023-10-19T02:57:25;100681.88;;;3.53;nan
71857;BME280;63344;46.980;28.882;2023-10-19T02:59:59;100693.22;;;3.55;nan
71857;BME280;63344;46.980;28.882;2023-10-19T03:02:30;100702.84;;;3.59;nan
71857;BME280;63344;46.980;28.882;2023-10-19T03:05:03;100692.41;;;3.50;nan
71857;BME280;63344;46.980;28.882;2023-10-19T03:07:44;100695.91;;;3.51;nan
71857;BME280;63344;46.980;28.882;2023-10-19T03:10:13;100702.06;;;3.50;nan
71857;BME280;63344;46.980;28.882;2023-10-19T03:13:01;100696.88;;;3.42;nan
71857;BME280;63344;46.980;28.882;2023-10-19T03:15:35;100690.78;;;3.35;nan
71857;BME280;63344;46.980;28.882;2023-10-19T03:18:03;100680.31;;;3.31;nan
71857;BME280;63344;46.980;28.882;2023-10-19T03:20:33;100672.53;;;3.22;nan
71857;BME280;63344;46.980;28.882;2023-10-19T03:23:09;100687.34;;;3.29;nan
71857;BME280;63344;46.980;28.882;2023-10-19T03:25:45;100688.19;;;3.29;nan
71857;BME280;63344;46.980;28.882;2023-10-19T03:28:38;100691.72;;;3.28;nan
71857;BME280;63344;46.980;28.882;2023-10-19T03:31:25;100692.63;;;3.23;nan
71857;BME280;63344;46.980;28.882;2023-10-19T03:34:00;100683.94;;;3.16;nan
71857;BME280;63344;46.980;28.882;2023-10-19T03:36:34;100694.44;;;3.16;nan
71857;BME280;63344;46.980;28.882;2023-10-19T03:39:09;100686.59;;;3.13;nan
71857;BME280;63344;46.980;28.882;2023-10-19T03:41:42;100658.78;;;2.90;nan
71857;BME280;63344;46.980;28.882;2023-10-19T03:44:14;100692.75;;;3.07;nan
71857;BME280;63344;46.980;28.882;2023-10-19T03:47:01;100681.41;;;3.04;nan
71857;BME280;63344;46.980;28.882;2023-10-19T03:49:32;100679.66;;;2.99;nan
71857;BME280;63344;46.980;28.882;2023-10-19T03:52:15;100677.94;;;2.97;nan
71857;BME280;63344;46.980;28.882;2023-10-19T03:54:42;100678.84;;;2.93;nan
71857;BME280;63344;46.980;28.882;2023-10-19T03:57:13;100661.44;;;2.83;nan
71857;BME280;63344;46.980;28.882;2023-10-19T03:59:47;100658.81;;;2.79;nan
71857;BME280;63344;46.980;28.882;2023-10-19T04:02:21;100665.81;;;2.84;nan
71857;BME280;63344;46.980;28.882;2023-10-19T04:05:13;100655.38;;;2.74;nan
71857;BME280;63344;46.980;28.882;2023-10-19T04:07:50;100654.47;;;2.75;nan
71857;BME280;63344;46.980;28.882;2023-10-19T04:10:44;100656.28;;;2.67;nan
71857;BME280;63344;46.980;28.882;2023-10-19T04:13:21;100657.13;;;2.71;nan
71857;BME280;63344;46.980;28.882;2023-10-19T04:15:53;100661.53;;;2.70;nan
71857;BME280;63344;46.980;28.882;2023-10-19T04:18:31;100658.03;;;2.68;nan
71857;BME280;63344;46.980;28.882;2023-10-19T04:21:04;100660.66;;;2.68;nan
71857;BME280;63344;46.980;28.882;2023-10-19T04:23:32;100645.00;;;2.54;nan
71857;BME280;63344;46.980;28.882;2023-10-19T04:26:04;100660.69;;;2.64;nan
71857;BME280;63344;46.980;28.882;2023-10-19T04:28:53;100658.97;;;2.53;nan
71857;BME280;63344;46.980;28.882;2023-10-19T04:31:22;100664.22;;;2.56;nan
71857;BME280;63344;46.980;28.882;2023-10-19T04:33:56;100661.63;;;2.49;nan
71857;BME280;63344;46.980;28.882;2023-10-19T04:36:31;100677.31;;;2.56;nan
71857;BME280;63344;46.980;28.882;2023-10-19T04:39:03;100675.56;;;2.57;nan
71857;BME280;63344;46.980;28.882;2023-10-19T04:41:34;100679.09;;;2.56;nan
71857;BME280;63344;46.980;28.882;2023-10-19T04:44:08;100666.88;;;2.50;nan
71857;BME280;63344;46.980;28.882;2023-10-19T04:46:38;100677.31;;;2.56;nan
71857;BME280;63344;46.980;28.882;2023-10-19T04:49:09;100686.03;;;2.62;nan
71857;BME280;63344;46.980;28.882;2023-10-19T04:51:39;100669.41;;;2.66;nan
71857;BME280;63344;46.980;28.882;2023-10-19T04:54:16;100665.06;;;2.60;nan
71857;BME280;63344;46.980;28.882;2023-10-19T04:56:46;100676.34;;;2.71;nan
71857;BME280;63344;46.980;28.882;2023-10-19T04:59:17;100665.03;;;2.68;nan
71857;BME280;63344;46.980;28.882;2023-10-19T05:01:45;100679.84;;;2.76;nan
71857;BME280;63344;46.980;28.882;2023-10-19T05:04:15;100674.59;;;2.78;nan
71857;BME280;63344;46.980;28.882;2023-10-19T05:06:45;100678.94;;;2.82;nan
71857;BME280;63344;46.980;28.882;2023-10-19T05:09:19;100668.44;;;2.79;nan
71857;BME280;63344;46.980;28.882;2023-10-19T05:11:47;100683.22;;;2.94;nan
71857;BME280;63344;46.980;28.882;2023-10-19T05:14:19;100675.31;;;2.97;nan
71857;BME280;63344;46.980;28.882;2023-10-19T05:16:48;100688.38;;;3.06;nan
71857;BME280;63344;46.980;28.882;2023-10-19T05:19:20;100684.00;;;3.08;nan
71857;BME280;63344;46.980;28.882;2023-10-19T05:21:49;100669.97;;;3.11;nan
71857;BME280;63344;46.980;28.882;2023-10-19T05:24:20;100690.00;;;3.26;nan
71857;BME280;63344;46.980;28.882;2023-10-19T05:26:51;100695.22;;;3.32;nan
71857;BME280;63344;46.980;28.882;2023-10-19T05:29:23;100685.56;;;3.34;nan
71857;BME280;63344;46.980;28.882;2023-10-19T05:32:01;100689.91;;;3.38;nan
71857;BME280;63344;46.980;28.882;2023-10-19T05:34:38;100678.50;;;3.42;nan
71857;BME280;63344;46.980;28.882;2023-10-19T05:37:08;100689.78;;;3.52;nan
71857;BME280;63344;46.980;28.882;2023-10-19T05:39:39;100674.94;;;3.48;nan
71857;BME280;63344;46.980;28.882;2023-10-19T05:42:15;100685.34;;;3.58;nan
71857;BME280;63344;46.980;28.882;2023-10-19T05:44:49;100678.38;;;3.57;nan
71857;BME280;63344;46.980;28.882;2023-10-19T05:47:18;100698.34;;;3.71;nan
71857;BME280;63344;46.980;28.882;2023-10-19T05:49:50;100679.09;;;3.72;nan
71857;BME280;63344;46.980;28.882;2023-10-19T05:52:20;100694.69;;;3.87;nan
71857;BME280;63344;46.980;28.882;2023-10-19T05:54:51;100691.13;;;3.94;nan
71857;BME280;63344;46.980;28.882;2023-10-19T05:57:23;100696.28;;;4.04;nan
71857;BME280;63344;46.980;28.882;2023-10-19T05:59:54;100694.44;;;4.13;nan
71857;BME280;63344;46.980;28.882;2023-10-19T06:02:23;100692.53;;;4.25;nan
71857;BME280;63344;46.980;28.882;2023-10-19T06:05:00;100683.72;;;4.29;nan
71857;BME280;63344;46.980;28.882;2023-10-19T06:07:29;100691.44;;;4.44;nan
71857;BME280;63344;46.980;28.882;2023-10-19T06:09:58;100683.38;;;4.55;nan
71857;BME280;63344;46.980;28.882;2023-10-19T06:12:31;100686.81;;;4.62;nan
71857;BME280;63344;46.980;28.882;2023-10-19T06:15:01;100694.63;;;4.69;nan
71857;BME280;63344;46.980;28.882;2023-10-19T06:17:32;100692.84;;;4.71;nan
71857;BME280;63344;46.980;28.882;2023-10-19T06:20:02;100691.78;;;4.83;nan
71857;BME280;63344;46.980;28.882;2023-10-19T06:22:36;100688.16;;;4.93;nan
71857;BME280;63344;46.980;28.882;2023-10-19T06:25:05;100694.13;;;5.03;nan
71857;BME280;63344;46.980;28.882;2023-10-19T06:27:35;100683.47;;;5.11;nan
71857;BME280;63344;46.980;28.882;2023-10-19T06:30:03;100689.47;;;5.21;nan
71857;BME280;63344;46.980;28.882;2023-10-19T06:32:32;100674.53;;;5.21;nan
71857;BME280;63344;46.980;28.882;2023-10-19T06:35:03;100681.25;;;5.39;nan
71857;BME280;63344;46.980;28.882;2023-10-19T06:37:34;100685.50;;;5.49;nan
71857;BME280;63344;46.980;28.882;2023-10-19T06:40:05;100673.19;;;5.51;nan
71857;BME280;63344;46.980;28.882;2023-10-19T06:42:38;100674.75;;;5.63;nan
71857;BME280;63344;46.980;28.882;2023-10-19T06:45:09;100657.88;;;5.72;nan
71857;BME280;63344;46.980;28.882;2023-10-19T06:47:42;100669.13;;;5.82;nan
71857;BME280;63344;46.980;28.882;2023-10-19T06:50:14;100667.09;;;5.97;nan
71857;BME280;63344;46.980;28.882;2023-10-19T06:52:44;100656.41;;;6.05;nan
71857;BME280;63344;46.980;28.882;2023-10-19T06:55:24;100671.78;;;6.27;nan
71857;BME280;63344;46.980;28.882;2023-10-19T06:57:58;100669.78;;;6.40;nan
71857;BME280;63344;46.980;28.882;2023-10-19T07:00:28;100666.88;;;6.52;nan
71857;BME280;63344;46.980;28.882;2023-10-19T07:02:57;100665.03;;;6.57;nan
71857;BME280;63344;46.980;28.882;2023-10-19T07:05:32;100665.44;;;6.77;nan
71857;BME280;63344;46.980;28.882;2023-10-19T07:08:02;100652.00;;;6.88;nan
71857;BME280;63344;46.980;28.882;2023-10-19T07:10:33;100654.31;;;7.02;nan
71857;BME280;63344;46.980;28.882;2023-10-19T07:13:05;100646.25;;;7.08;nan
71857;BME280;63344;46.980;28.882;2023-10-19T07:15:36;100639.78;;;7.20;nan
71857;BME280;63344;46.980;28.882;2023-10-19T07:18:04;100633.31;;;7.33;nan
71857;BME280;63344;46.980;28.882;2023-10-19T07:20:35;100648.56;;;7.56;nan
71857;BME280;63344;46.980;28.882;2023-10-19T07:23:06;100642.09;;;7.68;nan
71857;BME280;63344;46.980;28.882;2023-10-19T07:25:56;100633.00;;;7.78;nan
71857;BME280;63344;46.980;28.882;2023-10-19T07:28:28;100617.75;;;7.88;nan
71857;BME280;63344;46.980;28.882;2023-10-19T07:30:57;100626.09;;;8.06;nan
71857;BME280;63344;46.980;28.882;2023-10-19T07:33:36;100626.47;;;8.23;nan
71857;BME280;63344;46.980;28.882;2023-10-19T07:36:13;100625.19;;;8.36;nan
71857;BME280;63344;46.980;28.882;2023-10-19T07:38:46;100614.28;;;8.49;nan
71857;BME280;63344;46.980;28.882;2023-10-19T07:41:20;100608.69;;;8.58;nan
71857;BME280;63344;46.980;28.882;2023-10-19T07:43:50;100622.84;;;8.85;nan
71857;BME280;63344;46.980;28.882;2023-10-19T07:46:23;100618.63;;;9.06;nan
71857;BME280;63344;46.980;28.882;2023-10-19T07:48:51;100614.69;;;9.20;nan
71857;BME280;63344;46.980;28.882;2023-10-19T07:51:22;100616.69;;;9.38;nan
71857;BME280;63344;46.980;28.882;2023-10-19T07:53:51;100616.19;;;9.53;nan
71857;BME280;63344;46.980;28.882;2023-10-19T07:56:20;100611.97;;;9.73;nan
71857;BME280;63344;46.980;28.882;2023-10-19T07:58:53;100601.72;;;9.87;nan
71857;BME280;63344;46.980;28.882;2023-10-19T08:01:28;100598.34;;;10.07;nan
71857;BME280;63344;46.980;28.882;2023-10-19T08:03:57;100588.31;;;10.15;nan
71857;BME280;63344;46.980;28.882;2023-10-19T08:06:27;100592.69;;;10.40;nan
71857;BME280;63344;46.980;28.882;2023-10-19T08:08:58;100588.47;;;10.58;nan
71857;BME280;63344;46.980;28.882;2023-10-19T08:11:43;100583.34;;;10.75;nan
71857;BME280;63344;46.980;28.882;2023-10-19T08:14:18;100580.88;;;10.93;nan
71857;BME280;63344;46.980;28.882;2023-10-19T08:16:55;100561.97;;;11.01;nan
71857;BME280;63344;46.980;28.882;2023-10-19T08:19:29;100567.00;;;11.29;nan
71857;BME280;63344;46.980;28.882;2023-10-19T08:22:01;100566.25;;;11.46;nan
71857;BME280;63344;46.980;28.882;2023-10-19T08:24:31;100565.59;;;11.61;nan
71857;BME280;63344;46.980;28.882;2023-10-19T08:27:15;100564.56;;;11.84;nan
71857;BME280;63344;46.980;28.882;2023-10-19T08:29:47;100564.69;;;12.02;nan
71857;BME280;63344;46.980;28.882;2023-10-19T08:32:21;100566.53;;;12.20;nan
71857;BME280;63344;46.980;28.882;2023-10-19T08:34:50;100550.47;;;12.41;nan
71857;BME280;63344;46.980;28.882;2023-10-19T08:37:25;100553.56;;;12.68;nan
71857;BME280;63344;46.980;28.882;2023-10-19T08:39:54;100555.06;;;12.92;nan
71857;BME280;63344;46.980;28.882;2023-10-19T08:42:27;100539.44;;;13.20;nan
71857;BME280;63344;46.980;28.882;2023-10-19T08:44:57;100535.50;;;15.37;nan
71857;BME280;63344;46.980;28.882;2023-10-19T08:50:28;100529.63;;;19.61;nan
71857;BME280;63344;46.980;28.882;2023-10-19T08:53:02;100536.84;;;21.38;nan
71857;BME280;63344;46.980;28.882;2023-10-19T08:56:07;100536.63;;;22.93;nan
71857;BME280;63344;46.980;28.882;2023-10-19T08:58:49;100519.41;;;23.90;nan
71857;BME280;63344;46.980;28.882;2023-10-19T09:01:43;100516.47;;;24.39;nan
71857;BME280;63344;46.980;28.882;2023-10-19T09:04:48;100512.53;;;23.96;nan
71857;BME280;63344;46.980;28.882;2023-10-19T09:07:21;100510.06;;;24.30;nan
71857;BME280;63344;46.980;28.882;2023-10-19T09:10:18;100500.41;;;24.91;nan
71857;BME280;63344;46.980;28.882;2023-10-19T09:13:14;100510.44;;;26.05;nan
71857;BME280;63344;46.980;28.882;2023-10-19T09:16:20;100499.72;;;26.12;nan
71857;BME280;63344;46.980;28.882;2023-10-19T09:18:56;100487.78;;;25.70;nan
71857;BME280;63344;46.980;28.882;2023-10-19T09:22:05;100481.53;;;25.52;nan
71857;BME280;63344;46.980;28.882;2023-10-19T09:24:55;100483.16;;;25.62;nan
71857;BME280;63344;46.980;28.882;2023-10-19T09:32:25;100457.03;;;26.12;nan
71857;BME280;63344;46.980;28.882;2023-10-19T09:39:28;100460.38;;;25.98;nan
71857;BME280;63344;46.980;28.882;2023-10-19T09:59:55;100413.41;;;20.43;nan
71857;BME280;63344;46.980;28.882;2023-10-19T10:03:01;100433.66;;;19.71;nan
71857;BME280;63344;46.980;28.882;2023-10-19T10:05:54;100405.03;;;19.01;nan
71857;BME280;63344;46.980;28.882;2023-10-19T10:17:05;100382.50;;;18.31;nan
71857;BME280;63344;46.980;28.882;2023-10-19T10:20:28;100375.81;;;18.37;nan
71857;BME280;63344;46.980;28.882;2023-10-19T10:23:26;100363.59;;;18.33;nan
71857;BME280;63344;46.980;28.882;2023-10-19T10:26:14;100356.41;;;18.44;nan
71857;BME280;63344;46.980;28.882;2023-10-19T10:33:05;100336.84;;;18.42;nan
71857;BME280;63344;46.980;28.882;2023-10-19T10:40:11;100332.31;;;18.43;nan
71857;BME280;63344;46.980;28.882;2023-10-19T10:43:11;100347.63;;;18.42;nan
71857;BME280;63344;46.980;28.882;2023-10-19T10:46:25;100336.13;;;18.40;nan
71857;BME280;63344;46.980;28.882;2023-10-19T11:08:49;100312.09;;;18.73;nan
71857;BME280;63344;46.980;28.882;2023-10-19T11:11:43;100299.94;;;18.80;nan
71857;BME280;63344;46.980;28.882;2023-10-19T11:17:59;100304.84;;;19.20;nan
71857;BME280;63344;46.980;28.882;2023-10-19T11:20:46;100302.09;;;19.76;nan
71857;BME280;63344;46.980;28.882;2023-10-19T11:30:50;100286.56;;;19.46;nan
71857;BME280;63344;46.980;28.882;2023-10-19T11:33:28;100272.50;;;19.31;nan
71857;BME280;63344;46.980;28.882;2023-10-19T11:36:36;100267.88;;;19.22;nan
71857;BME280;63344;46.980;28.882;2023-10-19T11:39:28;100268.13;;;19.30;nan
71857;BME280;63344;46.980;28.882;2023-10-19T11:42:20;100247.19;;;19.34;nan
71857;BME280;63344;46.980;28.882;2023-10-19T11:45:35;100257.56;;;19.27;nan
71857;BME280;63344;46.980;28.882;2023-10-19T11:48:42;100256.63;;;19.17;nan
71857;BME280;63344;46.980;28.882;2023-10-19T11:51:40;100254.19;;;19.14;nan
71857;BME280;63344;46.980;28.882;2023-10-19T11:55:01;100237.41;;;19.10;nan
71857;BME280;63344;46.980;28.882;2023-10-19T11:57:46;100225.56;;;19.01;nan
71857;BME280;63344;46.980;28.882;2023-10-19T12:00:33;100236.31;;;19.24;nan
71857;BME280;63344;46.980;28.882;2023-10-19T12:03:36;100244.00;;;19.28;nan
71857;BME280;63344;46.980;28.882;2023-10-19T12:06:55;100227.38;;;19.23;nan
71857;BME280;63344;46.980;28.882;2023-10-19T12:09:57;100233.88;;;19.09;nan
71857;BME280;63344;46.980;28.882;2023-10-19T12:12:56;100227.88;;;19.06;nan
71857;BME280;63344;46.980;28.882;2023-10-19T12:16:13;100235.94;;;19.06;nan
71857;BME280;63344;46.980;28.882;2023-10-19T12:18:59;100207.81;;;18.99;nan
71857;BME280;63344;46.980;28.882;2023-10-19T12:25:47;100215.03;;;18.98;nan
71857;BME280;63344;46.980;28.882;2023-10-19T12:28:46;100213.44;;;18.96;nan
71857;BME280;63344;46.980;28.882;2023-10-19T12:31:23;100211.13;;;19.02;nan
71857;BME280;63344;46.980;28.882;2023-10-19T12:33:58;100196.81;;;19.02;nan
71857;BME280;63344;46.980;28.882;2023-10-19T12:51:01;100160.22;;;18.77;nan
71857;BME280;63344;46.980;28.882;2023-10-19T12:53:41;100161.34;;;18.85;nan
71857;BME280;63344;46.980;28.882;2023-10-19T12:56:35;100160.34;;;18.98;nan
71857;BME280;63344;46.980;28.882;2023-10-19T12:59:36;100153.63;;;18.92;nan
71857;BME280;63344;46.980;28.882;2023-10-19T13:02:18;100188.97;;;18.99;nan
71857;BME280;63344;46.980;28.882;2023-10-19T13:05:01;100176.63;;;18.96;nan
71857;BME280;63344;46.980;28.882;2023-10-19T13:07:43;100170.28;;;18.97;nan
71857;BME280;63344;46.980;28.882;2023-10-19T13:10:40;100150.22;;;18.90;nan
71857;BME280;63344;46.980;28.882;2023-10-19T13:13:56;100148.25;;;18.92;nan
71857;BME280;63344;46.980;28.882;2023-10-19T13:25:10;100156.22;;;18.82;nan
71857;BME280;63344;46.980;28.882;2023-10-19T13:27:46;100135.03;;;18.78;nan
71857;BME280;63344;46.980;28.882;2023-10-19T13:30:56;100125.75;;;18.82;nan
71857;BME280;63344;46.980;28.882;2023-10-19T13:33:42;100122.94;;;18.72;nan
71857;BME280;63344;46.980;28.882;2023-10-19T13:36:37;100103.97;;;18.51;nan
71857;BME280;63344;46.980;28.882;2023-10-19T13:39:22;100119.78;;;18.44;nan
71857;BME280;63344;46.980;28.882;2023-10-19T13:42:07;100118.91;;;18.44;nan
71857;BME280;63344;46.980;28.882;2023-10-19T13:45:32;100115.00;;;18.48;nan
71857;BME280;63344;46.980;28.882;2023-10-19T13:52:31;100110.00;;;18.32;nan
71857;BME280;63344;46.980;28.882;2023-10-19T13:55:28;100100.84;;;18.23;nan
71857;BME280;63344;46.980;28.882;2023-10-19T13:57:59;100103.97;;;18.17;nan
71857;BME280;63344;46.980;28.882;2023-10-19T14:01:27;100087.50;;;18.10;nan
71857;BME280;63344;46.980;28.882;2023-10-19T14:04:00;100085.91;;;18.08;nan
71857;BME280;63344;46.980;28.882;2023-10-19T14:06:49;100091.75;;;18.13;nan
71857;BME280;63344;46.980;28.882;2023-10-19T14:09:30;100100.56;;;18.15;nan
71857;BME280;63344;46.980;28.882;2023-10-19T14:12:11;100091.03;;;18.11;nan
71857;BME280;63344;46.980;28.882;2023-10-19T14:18:45;100076.84;;;18.09;nan
71857;BME280;63344;46.980;28.882;2023-10-19T14:21:28;100046.44;;;17.97;nan
71857;BME280;63344;46.980;28.882;2023-10-19T14:27:47;100040.81;;;17.89;nan
71857;BME280;63344;46.980;28.882;2023-10-19T14:30:27;100042.47;;;17.79;nan
71857;BME280;63344;46.980;28.882;2023-10-19T14:33:40;100044.06;;;17.70;nan
71857;BME280;63344;46.980;28.882;2023-10-19T14:36:24;100044.56;;;17.64;nan
71857;BME280;63344;46.980;28.882;2023-10-19T14:38:56;100036.09;;;17.57;nan
71857;BME280;63344;46.980;28.882;2023-10-19T14:41:38;100039.25;;;17.51;nan
71857;BME280;63344;46.980;28.882;2023-10-19T14:48:28;100040.22;;;17.39;nan
71857;BME280;63344;46.980;28.882;2023-10-19T14:51:49;100051.53;;;17.31;nan
71857;BME280;63344;46.980;28.882;2023-10-19T14:54:24;100046.16;;;17.31;nan
71857;BME280;63344;46.980;28.882;2023-10-19T14:56:57;100037.00;;;17.22;nan
71857;BME280;63344;46.980;28.882;2023-10-19T14:59:33;100048.00;;;17.30;nan
71857;BME280;63344;46.980;28.882;2023-10-19T15:02:08;100010.97;;;17.11;nan
71857;BME280;63344;46.980;28.882;2023-10-19T15:05:32;100033.09;;;17.26;nan
71857;BME280;63344;46.980;28.882;2023-10-19T15:08:09;100029.78;;;17.23;nan
71857;BME280;63344;46.980;28.882;2023-10-19T15:10:43;100014.41;;;17.14;nan
71857;BME280;63344;46.980;28.882;2023-10-19T15:13:18;100027.34;;;17.20;nan
71857;BME280;63344;46.980;28.882;2023-10-19T15:16:12;100035.63;;;17.17;nan
71857;BME280;63344;46.980;28.882;2023-10-19T15:18:47;100031.25;;;17.16;nan
71857;BME280;63344;46.980;28.882;2023-10-19T15:21:36;100028.41;;;17.06;nan
71857;BME280;63344;46.980;28.882;2023-10-19T15:25:20;100045.63;;;17.15;nan
71857;BME280;63344;46.980;28.882;2023-10-19T15:28:21;100040.50;;;17.11;nan
71857;BME280;63344;46.980;28.882;2023-10-19T15:31:14;100007.50;;;16.98;nan
71857;BME280;63344;46.980;28.882;2023-10-19T15:34:01;100025.94;;;17.03;nan
71857;BME280;63344;46.980;28.882;2023-10-19T15:36:57;100032.88;;;17.05;nan
71857;BME280;63344;46.980;28.882;2023-10-19T15:39:43;100041.91;;;17.04;nan
71857;BME280;63344;46.980;28.882;2023-10-19T15:42:33;100049.22;;;17.02;nan
71857;BME280;63344;46.980;28.882;2023-10-19T15:48:58;100043.47;;;16.96;nan
71857;BME280;63344;46.980;28.882;2023-10-19T15:51:27;100036.63;;;16.91;nan
71857;BME280;63344;46.980;28.882;2023-10-19T15:54:55;100015.94;;;16.81;nan
71857;BME280;63344;46.980;28.882;2023-10-19T15:57:47;100028.41;;;16.82;nan
71857;BME280;63344;46.980;28.882;2023-10-19T16:00:37;100019.91;;;16.75;nan
71857;BME280;63344;46.980;28.882;2023-10-19T16:03:30;100023.06;;;16.69;nan
71857;BME280;63344;46.980;28.882;2023-10-19T16:14:00;100021.44;;;16.42;nan
71857;BME280;63344;46.980;28.882;2023-10-19T16:25:05;100023.97;;;16.20;nan
71857;BME280;63344;46.980;28.882;2023-10-19T16:31:30;100005.66;;;16.01;nan
71857;BME280;63344;46.980;28.882;2023-10-19T16:38:01;99997.00;;;15.97;nan
71857;BME280;63344;46.980;28.882;2023-10-19T16:40:46;99999.25;;;15.90;nan